sensor_id;sensor_type;location;lat;lon;timestamp;temperature;humidity
40756;DHT22;26461;45.630;9.418;2022-09-30T00:01:41;15.30;99.90
40756;DHT22;26461;45.630;9.418;2022-09-30T00:04:50;15.30;99.90
40756;DHT22;26461;45.630;9.418;2022-09-30T00:07:55;15.30;99.90
40756;DHT22;26461;45.630;9.418;2022-09-30T00:11:06;15.30;99.90
40756;DHT22;26461;45.630;9.418;2022-09-30T00:14:18;15.30;99.90
40756;DHT22;26461;45.630;9.418;2022-09-30T00:17:29;15.30;99.90
40756;DHT22;26461;45.630;9.418;2022-09-30T00:20:34;15.30;99.90
40756;DHT22;26461;45.630;9.418;2022-09-30T00:23:39;15.30;99.90
40756;DHT22;26461;45.630;9.418;2022-09-30T00:26:44;15.30;99.90
40756;DHT22;26461;45.630;9.418;2022-09-30T00:29:49;15.30;99.90
40756;DHT22;26461;45.630;9.418;2022-09-30T00:32:54;15.30;99.90
40756;DHT22;26461;45.630;9.418;2022-09-30T00:36:00;15.30;99.90
40756;DHT22;26461;45.630;9.418;2022-09-30T00:39:07;15.30;99.90
40756;DHT22;26461;45.630;9.418;2022-09-30T00:42:13;15.30;99.90
40756;DHT22;26461;45.630;9.418;2022-09-30T00:45:26;15.30;99.90
40756;DHT22;26461;45.630;9.418;2022-09-30T00:48:38;15.30;99.90
40756;DHT22;26461;45.630;9.418;2022-09-30T00:51:53;15.30;99.90
40756;DHT22;26461;45.630;9.418;2022-09-30T00:55:00;15.30;99.90
40756;DHT22;26461;45.630;9.418;2022-09-30T01:01:48;15.30;99.90
40756;DHT22;26461;45.630;9.418;2022-09-30T01:04:58;15.30;99.90
40756;DHT22;26461;45.630;9.418;2022-09-30T01:08:09;15.30;99.90
40756;DHT22;26461;45.630;9.418;2022-09-30T01:11:20;15.30;99.90
40756;DHT22;26461;45.630;9.418;2022-09-30T01:14:26;15.20;99.90
40756;DHT22;26461;45.630;9.418;2022-09-30T01:18:04;15.30;99.90
40756;DHT22;26461;45.630;9.418;2022-09-30T01:25:15;15.20;99.90
40756;DHT22;26461;45.630;9.418;2022-09-30T01:32:01;15.20;99.90
40756;DHT22;26461;45.630;9.418;2022-09-30T01:35:37;15.20;99.90
40756;DHT22;26461;45.630;9.418;2022-09-30T01:39:00;15.20;99.90
40756;DHT22;26461;45.630;9.418;2022-09-30T01:42:20;15.20;99.90
40756;DHT22;26461;45.630;9.418;2022-09-30T01:45:35;15.20;99.90
40756;DHT22;26461;45.630;9.418;2022-09-30T01:52:20;15.20;99.90
40756;DHT22;26461;45.630;9.418;2022-09-30T01:55:38;15.20;99.90
40756;DHT22;26461;45.630;9.418;2022-09-30T02:02:26;15.20;99.90
40756;DHT22;26461;45.630;9.418;2022-09-30T02:05:41;15.20;99.90
40756;DHT22;26461;45.630;9.418;2022-09-30T02:09:05;15.20;99.90
40756;DHT22;26461;45.630;9.418;2022-09-30T02:12:16;15.20;99.90
40756;DHT22;26461;45.630;9.418;2022-09-30T02:15:34;15.10;99.90
40756;DHT22;26461;45.630;9.418;2022-09-30T02:18:47;15.20;99.90
40756;DHT22;26461;45.630;9.418;2022-09-30T02:22:05;15.20;99.90
40756;DHT22;26461;45.630;9.418;2022-09-30T02:25:22;15.20;99.90
40756;DHT22;26461;45.630;9.418;2022-09-30T02:28:29;15.20;99.90
40756;DHT22;26461;45.630;9.418;2022-09-30T02:31:41;15.20;99.90
40756;DHT22;26461;45.630;9.418;2022-09-30T02:34:51;15.20;99.90
40756;DHT22;26461;45.630;9.418;2022-09-30T02:38:18;15.20;99.90
40756;DHT22;26461;45.630;9.418;2022-09-30T02:41:25;15.20;99.90
40756;DHT22;26461;45.630;9.418;2022-09-30T02:44:37;15.20;99.90
40756;DHT22;26461;45.630;9.418;2022-09-30T02:51:37;15.20;99.90
40756;DHT22;26461;45.630;9.418;2022-09-30T02:55:13;15.20;99.90
40756;DHT22;26461;45.630;9.418;2022-09-30T02:58:26;15.20;99.90
40756;DHT22;26461;45.630;9.418;2022-09-30T03:01:37;15.20;99.90
40756;DHT22;26461;45.630;9.418;2022-09-30T03:04:45;15.20;99.90
40756;DHT22;26461;45.630;9.418;2022-09-30T03:07:56;15.20;99.90
40756;DHT22;26461;45.630;9.418;2022-09-30T03:11:02;15.20;99.90
40756;DHT22;26461;45.630;9.418;2022-09-30T03:21:05;15.20;99.90
40756;DHT22;26461;45.630;9.418;2022-09-30T03:38:31;15.20;99.90
40756;DHT22;26461;45.630;9.418;2022-09-30T03:41:54;15.10;99.90
40756;DHT22;26461;45.630;9.418;2022-09-30T03:45:15;15.10;99.90
40756;DHT22;26461;45.630;9.418;2022-09-30T03:48:22;15.10;99.90
40756;DHT22;26461;45.630;9.418;2022-09-30T03:51:30;15.10;99.90
40756;DHT22;26461;45.630;9.418;2022-09-30T03:54:47;15.10;99.90
40756;DHT22;26461;45.630;9.418;2022-09-30T03:57:53;15.10;99.90
40756;DHT22;26461;45.630;9.418;2022-09-30T04:00:58;15.00;99.90
40756;DHT22;26461;45.630;9.418;2022-09-30T04:04:08;15.00;99.90
40756;DHT22;26461;45.630;9.418;2022-09-30T04:07:13;15.00;99.90
40756;DHT22;26461;45.630;9.418;2022-09-30T04:10:18;15.00;99.90
40756;DHT22;26461;45.630;9.418;2022-09-30T04:13:23;15.00;99.90
40756;DHT22;26461;45.630;9.418;2022-09-30T04:16:29;15.00;99.90
40756;DHT22;26461;45.630;9.418;2022-09-30T04:19:34;14.90;99.90
40756;DHT22;26461;45.630;9.418;2022-09-30T04:22:48;14.90;99.90
40756;DHT22;26461;45.630;9.418;2022-09-30T04:25:54;14.90;99.90
40756;DHT22;26461;45.630;9.418;2022-09-30T04:28:59;14.90;99.90
40756;DHT22;26461;45.630;9.418;2022-09-30T04:32:12;14.90;99.90
40756;DHT22;26461;45.630;9.418;2022-09-30T04:35:17;14.90;99.90
40756;DHT22;26461;45.630;9.418;2022-09-30T04:38:28;15.00;99.90
40756;DHT22;26461;45.630;9.418;2022-09-30T04:41:34;15.00;99.90
40756;DHT22;26461;45.630;9.418;2022-09-30T04:44:41;15.00;99.90
40756;DHT22;26461;45.630;9.418;2022-09-30T04:47:51;15.00;99.90
40756;DHT22;26461;45.630;9.418;2022-09-30T04:50:57;15.00;99.90
40756;DHT22;26461;45.630;9.418;2022-09-30T04:54:08;15.10;99.90
40756;DHT22;26461;45.630;9.418;2022-09-30T04:57:18;15.10;99.90
40756;DHT22;26461;45.630;9.418;2022-09-30T05:00:23;15.10;99.90
40756;DHT22;26461;45.630;9.418;2022-09-30T05:03:29;15.10;99.90
40756;DHT22;26461;45.630;9.418;2022-09-30T05:06:34;15.10;99.90
40756;DHT22;26461;45.630;9.418;2022-09-30T05:09:40;15.10;99.90
40756;DHT22;26461;45.630;9.418;2022-09-30T05:12:51;15.10;99.90
40756;DHT22;26461;45.630;9.418;2022-09-30T05:15:56;15.10;99.90
40756;DHT22;26461;45.630;9.418;2022-09-30T05:19:01;15.10;99.90
40756;DHT22;26461;45.630;9.418;2022-09-30T05:22:06;15.10;99.90
40756;DHT22;26461;45.630;9.418;2022-09-30T05:25:17;15.10;99.90
40756;DHT22;26461;45.630;9.418;2022-09-30T05:28:22;15.10;99.90
40756;DHT22;26461;45.630;9.418;2022-09-30T05:31:28;15.10;99.90
40756;DHT22;26461;45.630;9.418;2022-09-30T05:34:38;15.10;99.90
40756;DHT22;26461;45.630;9.418;2022-09-30T05:37:44;15.10;99.90
40756;DHT22;26461;45.630;9.418;2022-09-30T05:40:54;15.00;99.90
40756;DHT22;26461;45.630;9.418;2022-09-30T05:44:04;15.00;99.90
40756;DHT22;26461;45.630;9.418;2022-09-30T05:47:09;15.00;99.90
40756;DHT22;26461;45.630;9.418;2022-09-30T05:50:22;14.90;99.90
40756;DHT22;26461;45.630;9.418;2022-09-30T05:53:34;14.90;99.90
40756;DHT22;26461;45.630;9.418;2022-09-30T05:56:41;14.90;99.90
40756;DHT22;26461;45.630;9.418;2022-09-30T05:59:47;14.80;99.90
40756;DHT22;26461;45.630;9.418;2022-09-30T06:02:57;14.80;99.90
40756;DHT22;26461;45.630;9.418;2022-09-30T06:06:02;14.80;99.90
40756;DHT22;26461;45.630;9.418;2022-09-30T06:09:07;14.80;99.90
40756;DHT22;26461;45.630;9.418;2022-09-30T06:12:12;14.80;99.90
40756;DHT22;26461;45.630;9.418;2022-09-30T06:15:18;14.80;99.90
40756;DHT22;26461;45.630;9.418;2022-09-30T06:18:28;14.80;99.90
40756;DHT22;26461;45.630;9.418;2022-09-30T06:21:34;14.80;99.90
40756;DHT22;26461;45.630;9.418;2022-09-30T06:24:39;14.70;99.90
40756;DHT22;26461;45.630;9.418;2022-09-30T06:27:45;14.70;99.90
40756;DHT22;26461;45.630;9.418;2022-09-30T06:30:51;14.70;99.90
40756;DHT22;26461;45.630;9.418;2022-09-30T06:33:56;14.70;99.90
40756;DHT22;26461;45.630;9.418;2022-09-30T06:37:01;14.70;99.90
40756;DHT22;26461;45.630;9.418;2022-09-30T06:40:12;14.70;99.90
40756;DHT22;26461;45.630;9.418;2022-09-30T06:43:22;14.70;99.90
40756;DHT22;26461;45.630;9.418;2022-09-30T06:46:27;14.70;99.90
40756;DHT22;26461;45.630;9.418;2022-09-30T06:49:39;14.60;99.90
40756;DHT22;26461;45.630;9.418;2022-09-30T06:52:49;14.60;99.90
40756;DHT22;26461;45.630;9.418;2022-09-30T06:55:56;14.60;99.90
40756;DHT22;26461;45.630;9.418;2022-09-30T06:59:01;14.60;99.90
40756;DHT22;26461;45.630;9.418;2022-09-30T07:02:08;14.70;99.90
40756;DHT22;26461;45.630;9.418;2022-09-30T07:05:15;14.70;99.90
40756;DHT22;26461;45.630;9.418;2022-09-30T07:08:21;14.70;99.90
40756;DHT22;26461;45.630;9.418;2022-09-30T07:11:26;14.70;99.90
40756;DHT22;26461;45.630;9.418;2022-09-30T07:14:32;14.70;99.90
40756;DHT22;26461;45.630;9.418;2022-09-30T07:17:40;14.70;99.90
40756;DHT22;26461;45.630;9.418;2022-09-30T07:20:51;14.60;99.90
40756;DHT22;26461;45.630;9.418;2022-09-30T07:24:02;14.60;99.90
40756;DHT22;26461;45.630;9.418;2022-09-30T07:27:12;14.60;99.90
40756;DHT22;26461;45.630;9.418;2022-09-30T07:30:18;14.60;99.90
40756;DHT22;26461;45.630;9.418;2022-09-30T07:33:30;14.60;99.90
40756;DHT22;26461;45.630;9.418;2022-09-30T07:36:37;14.60;99.90
40756;DHT22;26461;45.630;9.418;2022-09-30T07:39:48;14.60;99.90
40756;DHT22;26461;45.630;9.418;2022-09-30T07:42:58;14.60;99.90
40756;DHT22;26461;45.630;9.418;2022-09-30T07:46:12;14.70;99.90
40756;DHT22;26461;45.630;9.418;2022-09-30T07:49:22;14.70;99.90
40756;DHT22;26461;45.630;9.418;2022-09-30T07:52:34;14.70;99.90
40756;DHT22;26461;45.630;9.418;2022-09-30T07:55:44;14.70;99.90
40756;DHT22;26461;45.630;9.418;2022-09-30T07:58:56;14.80;99.90
40756;DHT22;26461;45.630;9.418;2022-09-30T08:02:17;14.80;99.90
40756;DHT22;26461;45.630;9.418;2022-09-30T08:05:27;14.90;99.90
40756;DHT22;26461;45.630;9.418;2022-09-30T08:08:32;14.90;99.90
40756;DHT22;26461;45.630;9.418;2022-09-30T08:11:42;14.90;99.90
40756;DHT22;26461;45.630;9.418;2022-09-30T08:14:47;15.00;99.90
40756;DHT22;26461;45.630;9.418;2022-09-30T08:17:57;15.00;99.90
40756;DHT22;26461;45.630;9.418;2022-09-30T08:21:05;15.00;99.90
40756;DHT22;26461;45.630;9.418;2022-09-30T08:24:17;15.00;99.90
40756;DHT22;26461;45.630;9.418;2022-09-30T08:27:21;15.10;99.90
40756;DHT22;26461;45.630;9.418;2022-09-30T08:30:26;15.10;99.90
40756;DHT22;26461;45.630;9.418;2022-09-30T08:33:32;15.20;99.90
40756;DHT22;26461;45.630;9.418;2022-09-30T08:36:41;15.20;99.90
40756;DHT22;26461;45.630;9.418;2022-09-30T08:39:47;15.30;99.90
40756;DHT22;26461;45.630;9.418;2022-09-30T08:43:23;15.30;99.90
40756;DHT22;26461;45.630;9.418;2022-09-30T08:53:04;15.40;99.90
40756;DHT22;26461;45.630;9.418;2022-09-30T08:56:22;15.50;99.90
40756;DHT22;26461;45.630;9.418;2022-09-30T08:59:51;15.50;99.90
40756;DHT22;26461;45.630;9.418;2022-09-30T09:02:59;15.60;99.90
40756;DHT22;26461;45.630;9.418;2022-09-30T09:13:03;15.70;99.90
40756;DHT22;26461;45.630;9.418;2022-09-30T09:16:23;15.80;99.90
40756;DHT22;26461;45.630;9.418;2022-09-30T09:23:09;15.90;99.90
40756;DHT22;26461;45.630;9.418;2022-09-30T09:26:20;15.90;99.90
40756;DHT22;26461;45.630;9.418;2022-09-30T09:32:59;15.90;99.90
40756;DHT22;26461;45.630;9.418;2022-09-30T09:36:23;15.90;99.90
40756;DHT22;26461;45.630;9.418;2022-09-30T09:39:49;15.90;99.90
40756;DHT22;26461;45.630;9.418;2022-09-30T09:47:07;16.00;99.90
40756;DHT22;26461;45.630;9.418;2022-09-30T09:50:38;16.00;99.90
40756;DHT22;26461;45.630;9.418;2022-09-30T09:53:53;16.00;99.90
40756;DHT22;26461;45.630;9.418;2022-09-30T09:57:06;16.00;99.90
40756;DHT22;26461;45.630;9.418;2022-09-30T10:00:23;16.00;99.90
40756;DHT22;26461;45.630;9.418;2022-09-30T10:04:10;16.00;99.90
40756;DHT22;26461;45.630;9.418;2022-09-30T10:07:19;16.00;99.90
40756;DHT22;26461;45.630;9.418;2022-09-30T10:10:25;16.00;99.90
40756;DHT22;26461;45.630;9.418;2022-09-30T10:13:43;16.00;99.90
40756;DHT22;26461;45.630;9.418;2022-09-30T10:16:59;16.00;99.90
40756;DHT22;26461;45.630;9.418;2022-09-30T10:23:30;16.00;99.90
40756;DHT22;26461;45.630;9.418;2022-09-30T10:26:43;16.00;99.90
40756;DHT22;26461;45.630;9.418;2022-09-30T10:29:54;16.00;99.90
40756;DHT22;26461;45.630;9.418;2022-09-30T10:33:21;16.00;99.90
40756;DHT22;26461;45.630;9.418;2022-09-30T10:36:32;16.00;99.90
40756;DHT22;26461;45.630;9.418;2022-09-30T10:40:00;16.00;99.90
40756;DHT22;26461;45.630;9.418;2022-09-30T10:47:00;16.00;99.90
40756;DHT22;26461;45.630;9.418;2022-09-30T10:50:09;16.00;99.90
40756;DHT22;26461;45.630;9.418;2022-09-30T10:53:23;16.00;99.90
40756;DHT22;26461;45.630;9.418;2022-09-30T10:56:42;16.00;99.90
40756;DHT22;26461;45.630;9.418;2022-09-30T11:00:00;15.90;99.90
40756;DHT22;26461;45.630;9.418;2022-09-30T11:03:20;15.90;99.90
40756;DHT22;26461;45.630;9.418;2022-09-30T11:06:31;16.00;99.90
40756;DHT22;26461;45.630;9.418;2022-09-30T11:09:52;16.00;99.90
40756;DHT22;26461;45.630;9.418;2022-09-30T11:16:40;16.10;99.90
40756;DHT22;26461;45.630;9.418;2022-09-30T11:20:42;16.10;99.90
40756;DHT22;26461;45.630;9.418;2022-09-30T11:23:32;16.20;99.90
40756;DHT22;26461;45.630;9.418;2022-09-30T11:30:11;16.20;99.90
40756;DHT22;26461;45.630;9.418;2022-09-30T11:33:33;16.30;99.90
40756;DHT22;26461;45.630;9.418;2022-09-30T11:37:09;16.30;99.90
40756;DHT22;26461;45.630;9.418;2022-09-30T11:44:09;16.40;99.90
40756;DHT22;26461;45.630;9.418;2022-09-30T11:47:42;16.40;99.90
40756;DHT22;26461;45.630;9.418;2022-09-30T11:51:17;16.50;99.90
40756;DHT22;26461;45.630;9.418;2022-09-30T11:58:03;16.60;99.90
40756;DHT22;26461;45.630;9.418;2022-09-30T12:01:19;16.60;99.90
40756;DHT22;26461;45.630;9.418;2022-09-30T12:04:38;16.60;99.90
40756;DHT22;26461;45.630;9.418;2022-09-30T12:08:15;16.60;99.90
40756;DHT22;26461;45.630;9.418;2022-09-30T12:15:15;16.70;99.90
40756;DHT22;26461;45.630;9.418;2022-09-30T12:18:38;16.70;99.90
40756;DHT22;26461;45.630;9.418;2022-09-30T12:22:14;16.70;99.90
40756;DHT22;26461;45.630;9.418;2022-09-30T12:25:29;16.70;99.90
40756;DHT22;26461;45.630;9.418;2022-09-30T12:28:53;16.70;99.90
40756;DHT22;26461;45.630;9.418;2022-09-30T12:33:09;16.70;99.90
40756;DHT22;26461;45.630;9.418;2022-09-30T12:36:18;16.70;99.90
40756;DHT22;26461;45.630;9.418;2022-09-30T12:50:18;16.50;99.90
40756;DHT22;26461;45.630;9.418;2022-09-30T12:53:32;16.60;99.90
40756;DHT22;26461;45.630;9.418;2022-09-30T12:56:44;16.60;99.90
40756;DHT22;26461;45.630;9.418;2022-09-30T13:00:04;16.60;99.90
40756;DHT22;26461;45.630;9.418;2022-09-30T13:03:17;16.60;99.90
40756;DHT22;26461;45.630;9.418;2022-09-30T13:10:26;16.60;99.90
40756;DHT22;26461;45.630;9.418;2022-09-30T13:13:56;16.60;99.90
40756;DHT22;26461;45.630;9.418;2022-09-30T13:24:06;16.50;99.90
40756;DHT22;26461;45.630;9.418;2022-09-30T13:27:16;16.50;99.90
40756;DHT22;26461;45.630;9.418;2022-09-30T13:37:36;16.50;99.90
40756;DHT22;26461;45.630;9.418;2022-09-30T13:44:08;16.40;99.90
40756;DHT22;26461;45.630;9.418;2022-09-30T13:47:49;16.40;99.90
40756;DHT22;26461;45.630;9.418;2022-09-30T13:51:06;16.30;99.90
40756;DHT22;26461;45.630;9.418;2022-09-30T13:54:29;16.30;99.90
40756;DHT22;26461;45.630;9.418;2022-09-30T14:08:45;16.40;99.90
40756;DHT22;26461;45.630;9.418;2022-09-30T14:12:16;16.40;99.90
40756;DHT22;26461;45.630;9.418;2022-09-30T14:15:44;16.40;99.90
40756;DHT22;26461;45.630;9.418;2022-09-30T14:19:12;16.50;99.90
40756;DHT22;26461;45.630;9.418;2022-09-30T14:22:25;16.50;99.90
40756;DHT22;26461;45.630;9.418;2022-09-30T14:26:34;16.50;99.90
40756;DHT22;26461;45.630;9.418;2022-09-30T14:29:18;16.60;99.90
40756;DHT22;26461;45.630;9.418;2022-09-30T14:36:19;16.60;99.90
40756;DHT22;26461;45.630;9.418;2022-09-30T14:39:31;16.60;99.90
40756;DHT22;26461;45.630;9.418;2022-09-30T14:42:42;16.60;99.90
40756;DHT22;26461;45.630;9.418;2022-09-30T14:45:55;16.60;99.90
40756;DHT22;26461;45.630;9.418;2022-09-30T14:49:20;16.60;99.90
40756;DHT22;26461;45.630;9.418;2022-09-30T14:52:42;16.50;99.90
40756;DHT22;26461;45.630;9.418;2022-09-30T14:55:52;16.50;99.90
40756;DHT22;26461;45.630;9.418;2022-09-30T14:59:25;16.50;99.90
40756;DHT22;26461;45.630;9.418;2022-09-30T15:02:43;16.50;99.90
40756;DHT22;26461;45.630;9.418;2022-09-30T15:05:50;16.50;99.90
40756;DHT22;26461;45.630;9.418;2022-09-30T15:09:43;16.50;99.90
40756;DHT22;26461;45.630;9.418;2022-09-30T15:12:34;16.50;99.90
40756;DHT22;26461;45.630;9.418;2022-09-30T15:15:47;16.50;99.90
40756;DHT22;26461;45.630;9.418;2022-09-30T15:18:58;16.50;99.90
40756;DHT22;26461;45.630;9.418;2022-09-30T15:22:05;16.50;99.90
40756;DHT22;26461;45.630;9.418;2022-09-30T15:25:18;16.50;99.90
40756;DHT22;26461;45.630;9.418;2022-09-30T15:28:24;16.50;99.90
40756;DHT22;26461;45.630;9.418;2022-09-30T15:31:42;16.50;99.90
40756;DHT22;26461;45.630;9.418;2022-09-30T15:34:52;16.50;99.90
40756;DHT22;26461;45.630;9.418;2022-09-30T15:38:23;16.40;99.90
40756;DHT22;26461;45.630;9.418;2022-09-30T15:41:38;16.40;99.90
40756;DHT22;26461;45.630;9.418;2022-09-30T15:44:49;16.40;99.90
40756;DHT22;26461;45.630;9.418;2022-09-30T15:54:39;16.40;99.90
40756;DHT22;26461;45.630;9.418;2022-09-30T15:57:52;16.40;99.90
40756;DHT22;26461;45.630;9.418;2022-09-30T16:01:18;16.40;99.90
40756;DHT22;26461;45.630;9.418;2022-09-30T16:04:31;16.40;99.90
40756;DHT22;26461;45.630;9.418;2022-09-30T16:07:41;16.40;99.90
40756;DHT22;26461;45.630;9.418;2022-09-30T16:10:52;16.40;99.90
40756;DHT22;26461;45.630;9.418;2022-09-30T16:14:05;16.50;99.90
40756;DHT22;26461;45.630;9.418;2022-09-30T16:17:37;16.50;99.90
40756;DHT22;26461;45.630;9.418;2022-09-30T16:21:03;16.50;99.90
40756;DHT22;26461;45.630;9.418;2022-09-30T16:27:34;16.50;99.90
40756;DHT22;26461;45.630;9.418;2022-09-30T16:30:49;16.50;99.90
40756;DHT22;26461;45.630;9.418;2022-09-30T16:34:00;16.50;99.90
40756;DHT22;26461;45.630;9.418;2022-09-30T16:37:12;16.50;99.90
40756;DHT22;26461;45.630;9.418;2022-09-30T16:40:21;16.40;99.90
40756;DHT22;26461;45.630;9.418;2022-09-30T16:43:30;16.40;99.90
40756;DHT22;26461;45.630;9.418;2022-09-30T16:46:40;16.30;99.90
40756;DHT22;26461;45.630;9.418;2022-09-30T16:49:50;16.30;99.90
40756;DHT22;26461;45.630;9.418;2022-09-30T16:53:00;16.30;99.90
40756;DHT22;26461;45.630;9.418;2022-09-30T16:56:07;16.20;99.90
40756;DHT22;26461;45.630;9.418;2022-09-30T16:59:19;16.20;99.90
40756;DHT22;26461;45.630;9.418;2022-09-30T17:02:26;16.20;99.90
40756;DHT22;26461;45.630;9.418;2022-09-30T17:05:39;16.10;99.90
40756;DHT22;26461;45.630;9.418;2022-09-30T17:08:50;16.10;99.90
40756;DHT22;26461;45.630;9.418;2022-09-30T17:12:02;16.10;99.90
40756;DHT22;26461;45.630;9.418;2022-09-30T17:15:07;16.00;99.90
40756;DHT22;26461;45.630;9.418;2022-09-30T17:18:18;16.00;99.90
40756;DHT22;26461;45.630;9.418;2022-09-30T17:21:28;16.00;99.90
40756;DHT22;26461;45.630;9.418;2022-09-30T17:24:34;15.90;99.90
40756;DHT22;26461;45.630;9.418;2022-09-30T17:27:47;15.90;99.90
40756;DHT22;26461;45.630;9.418;2022-09-30T17:30:53;15.90;99.90
40756;DHT22;26461;45.630;9.418;2022-09-30T17:33:58;15.90;99.90
40756;DHT22;26461;45.630;9.418;2022-09-30T17:37:03;15.80;99.90
40756;DHT22;26461;45.630;9.418;2022-09-30T17:40:08;15.80;99.90
40756;DHT22;26461;45.630;9.418;2022-09-30T17:43:37;15.80;99.90
40756;DHT22;26461;45.630;9.418;2022-09-30T17:46:47;15.80;99.90
40756;DHT22;26461;45.630;9.418;2022-09-30T17:49:57;15.80;99.90
40756;DHT22;26461;45.630;9.418;2022-09-30T17:53:03;15.70;99.90
40756;DHT22;26461;45.630;9.418;2022-09-30T17:56:18;15.70;99.90
40756;DHT22;26461;45.630;9.418;2022-09-30T17:59:28;15.70;99.90
40756;DHT22;26461;45.630;9.418;2022-09-30T18:02:41;15.60;99.90
40756;DHT22;26461;45.630;9.418;2022-09-30T18:05:56;15.60;99.90
40756;DHT22;26461;45.630;9.418;2022-09-30T18:09:07;15.60;99.90
40756;DHT22;26461;45.630;9.418;2022-09-30T18:12:17;15.60;99.90
40756;DHT22;26461;45.630;9.418;2022-09-30T18:15:23;15.60;99.90
40756;DHT22;26461;45.630;9.418;2022-09-30T18:18:35;15.50;99.90
40756;DHT22;26461;45.630;9.418;2022-09-30T18:21:49;15.50;99.90
40756;DHT22;26461;45.630;9.418;2022-09-30T18:24:55;15.50;99.90
40756;DHT22;26461;45.630;9.418;2022-09-30T18:28:35;15.40;99.90
40756;DHT22;26461;45.630;9.418;2022-09-30T18:31:45;15.40;99.90
40756;DHT22;26461;45.630;9.418;2022-09-30T18:34:51;15.40;99.90
40756;DHT22;26461;45.630;9.418;2022-09-30T18:38:03;15.40;99.90
40756;DHT22;26461;45.630;9.418;2022-09-30T18:41:09;15.30;99.90
40756;DHT22;26461;45.630;9.418;2022-09-30T18:44:21;15.30;99.90
40756;DHT22;26461;45.630;9.418;2022-09-30T18:47:34;15.30;99.90
40756;DHT22;26461;45.630;9.418;2022-09-30T18:50:39;15.30;99.90
40756;DHT22;26461;45.630;9.418;2022-09-30T18:53:54;15.20;99.90
40756;DHT22;26461;45.630;9.418;2022-09-30T18:57:02;15.20;99.90
40756;DHT22;26461;45.630;9.418;2022-09-30T19:00:08;15.20;99.90
40756;DHT22;26461;45.630;9.418;2022-09-30T19:03:19;15.20;99.90
40756;DHT22;26461;45.630;9.418;2022-09-30T19:06:32;15.10;99.90
40756;DHT22;26461;45.630;9.418;2022-09-30T19:09:45;15.00;99.90
40756;DHT22;26461;45.630;9.418;2022-09-30T19:12:55;15.00;99.90
40756;DHT22;26461;45.630;9.418;2022-09-30T19:16:11;14.90;99.90
40756;DHT22;26461;45.630;9.418;2022-09-30T19:19:16;14.90;99.90
40756;DHT22;26461;45.630;9.418;2022-09-30T19:22:29;14.90;99.90
40756;DHT22;26461;45.630;9.418;2022-09-30T19:25:37;14.90;99.90
40756;DHT22;26461;45.630;9.418;2022-09-30T19:28:52;14.90;99.90
40756;DHT22;26461;45.630;9.418;2022-09-30T19:32:00;14.90;99.90
40756;DHT22;26461;45.630;9.418;2022-09-30T19:35:07;14.90;99.90
40756;DHT22;26461;45.630;9.418;2022-09-30T19:38:14;14.90;99.90
40756;DHT22;26461;45.630;9.418;2022-09-30T19:41:19;14.90;99.90
40756;DHT22;26461;45.630;9.418;2022-09-30T19:44:30;14.90;99.90
40756;DHT22;26461;45.630;9.418;2022-09-30T19:47:42;14.90;99.90
40756;DHT22;26461;45.630;9.418;2022-09-30T19:50:58;14.90;99.90
40756;DHT22;26461;45.630;9.418;2022-09-30T19:54:03;14.90;99.90
40756;DHT22;26461;45.630;9.418;2022-09-30T19:57:08;14.90;99.90
40756;DHT22;26461;45.630;9.418;2022-09-30T20:00:14;14.90;99.90
40756;DHT22;26461;45.630;9.418;2022-09-30T20:03:21;14.80;99.90
40756;DHT22;26461;45.630;9.418;2022-09-30T20:06:34;14.70;99.90
40756;DHT22;26461;45.630;9.418;2022-09-30T20:09:43;14.60;99.90
40756;DHT22;26461;45.630;9.418;2022-09-30T20:12:57;14.60;99.90
40756;DHT22;26461;45.630;9.418;2022-09-30T20:16:08;14.60;99.90
40756;DHT22;26461;45.630;9.418;2022-09-30T20:19:16;14.50;99.90
40756;DHT22;26461;45.630;9.418;2022-09-30T20:22:29;14.50;99.90
40756;DHT22;26461;45.630;9.418;2022-09-30T20:25:37;14.50;99.90
40756;DHT22;26461;45.630;9.418;2022-09-30T20:28:47;14.50;99.90
40756;DHT22;26461;45.630;9.418;2022-09-30T20:31:53;14.40;99.90
40756;DHT22;26461;45.630;9.418;2022-09-30T20:34:58;14.40;99.90
40756;DHT22;26461;45.630;9.418;2022-09-30T20:38:04;14.40;99.90
40756;DHT22;26461;45.630;9.418;2022-09-30T20:41:15;14.30;99.90
40756;DHT22;26461;45.630;9.418;2022-09-30T20:44:22;14.30;99.90
40756;DHT22;26461;45.630;9.418;2022-09-30T20:47:28;14.30;99.90
40756;DHT22;26461;45.630;9.418;2022-09-30T20:50:42;14.20;99.90
40756;DHT22;26461;45.630;9.418;2022-09-30T20:53:50;14.20;99.90
40756;DHT22;26461;45.630;9.418;2022-09-30T20:56:55;14.20;99.90
40756;DHT22;26461;45.630;9.418;2022-09-30T21:00:00;14.20;99.90
40756;DHT22;26461;45.630;9.418;2022-09-30T21:03:09;14.20;99.90
40756;DHT22;26461;45.630;9.418;2022-09-30T21:06:26;14.30;99.90
40756;DHT22;26461;45.630;9.418;2022-09-30T21:09:36;14.30;99.90
40756;DHT22;26461;45.630;9.418;2022-09-30T21:12:46;14.40;99.90
40756;DHT22;26461;45.630;9.418;2022-09-30T21:16:00;14.40;99.90
40756;DHT22;26461;45.630;9.418;2022-09-30T21:19:10;14.40;99.90
40756;DHT22;26461;45.630;9.418;2022-09-30T21:22:20;14.50;99.90
40756;DHT22;26461;45.630;9.418;2022-09-30T21:25:25;14.50;99.90
40756;DHT22;26461;45.630;9.418;2022-09-30T21:28:31;14.60;99.90
40756;DHT22;26461;45.630;9.418;2022-09-30T21:31:37;14.60;99.90
40756;DHT22;26461;45.630;9.418;2022-09-30T21:34:43;14.60;99.90
40756;DHT22;26461;45.630;9.418;2022-09-30T21:37:49;14.60;99.90
40756;DHT22;26461;45.630;9.418;2022-09-30T21:41:02;14.60;99.90
40756;DHT22;26461;45.630;9.418;2022-09-30T21:44:07;14.60;99.90
40756;DHT22;26461;45.630;9.418;2022-09-30T21:47:17;14.60;99.90
40756;DHT22;26461;45.630;9.418;2022-09-30T21:50:23;14.60;99.90
40756;DHT22;26461;45.630;9.418;2022-09-30T21:53:28;14.60;99.90
40756;DHT22;26461;45.630;9.418;2022-09-30T21:56:39;14.70;99.90
40756;DHT22;26461;45.630;9.418;2022-09-30T21:59:44;14.60;99.90
40756;DHT22;26461;45.630;9.418;2022-09-30T22:02:49;14.70;99.90
40756;DHT22;26461;45.630;9.418;2022-09-30T22:05:56;14.70;99.90
40756;DHT22;26461;45.630;9.418;2022-09-30T22:09:01;14.70;99.90
40756;DHT22;26461;45.630;9.418;2022-09-30T22:12:12;14.70;99.90
40756;DHT22;26461;45.630;9.418;2022-09-30T22:15:22;14.70;99.90
40756;DHT22;26461;45.630;9.418;2022-09-30T22:18:27;14.80;99.90
40756;DHT22;26461;45.630;9.418;2022-09-30T22:21:41;14.80;99.90
40756;DHT22;26461;45.630;9.418;2022-09-30T22:24:46;14.80;99.90
40756;DHT22;26461;45.630;9.418;2022-09-30T22:27:51;14.80;99.90
40756;DHT22;26461;45.630;9.418;2022-09-30T22:31:12;14.80;99.90
40756;DHT22;26461;45.630;9.418;2022-09-30T22:34:20;14.80;99.90
40756;DHT22;26461;45.630;9.418;2022-09-30T22:37:47;14.70;99.90
40756;DHT22;26461;45.630;9.418;2022-09-30T22:41:16;14.70;99.90
40756;DHT22;26461;45.630;9.418;2022-09-30T22:44:23;14.70;99.90